首页
METAR-TAF:

METAR-TAF

机场 :

Hagerstown, 马里兰州, 美国

纬度: 39-42-21N, 经度: 077-43-48W, 海拔: 214米

当前天气观测

该预报发布于16分钟前的20:53 UTC
风速8节,风向
温度 32°C
湿度 46%
气压 1012 hPa
能見度: 16.1公里
多云层高于6000英尺
多云层高于7500英尺

METAR: KHGR 222053Z 19008KT 10SM BKN060 BKN075 32/19 A2988 RMK AO2 SLP119 T03220189 56022

时间: 17:09 (21:09 UTC)


TAF: 丢失

超过4000个机场的气象观测和天气预报(METAR&TAF报告)。

可查询的气象台以黄色和红色小点在地图上表示。

将鼠标移到小点上方,可查看气象台名称。

然后点击查看天气观测和预报。

如需切换地图:点击带黑十字的绿色按钮放大地图;点击带横线的绿色按钮缩小地图;或者点击绿色箭头查看邻近地区的地图。


METAR-TAF: